createdAt,value
2022-12-12T00:00:14.404Z,1.50
2022-12-12T00:03:01.704Z,1.50
2022-12-12T00:05:48.060Z,1.60
2022-12-12T00:08:34.043Z,1.50
2022-12-12T00:11:20.688Z,1.50
2022-12-12T00:14:06.894Z,1.60
2022-12-12T00:16:53.001Z,1.50
2022-12-12T00:19:43.254Z,1.30
2022-12-12T00:22:29.283Z,1.50
2022-12-12T00:25:15.583Z,1.90
2022-12-12T00:28:02.655Z,1.60
2022-12-12T00:30:48.803Z,1.50
2022-12-12T00:33:34.757Z,1.90
2022-12-12T00:36:23.782Z,1.60
2022-12-12T00:39:15.157Z,1.90
2022-12-12T00:42:04.750Z,1.60
2022-12-12T00:44:50.745Z,1.60
2022-12-12T00:47:36.871Z,1.60
2022-12-12T00:50:23.145Z,1.60
2022-12-12T00:53:09.093Z,1.60
2022-12-12T00:55:57.101Z,1.60
2022-12-12T00:58:43.496Z,1.60
2022-12-12T01:01:31.366Z,1.70
2022-12-12T01:04:17.989Z,1.70
2022-12-12T01:07:04.395Z,1.70
2022-12-12T01:09:50.297Z,1.70
2022-12-12T01:12:36.626Z,2.00
2022-12-12T01:15:22.720Z,2.00
2022-12-12T01:18:08.672Z,1.60
2022-12-12T01:20:54.783Z,1.60
2022-12-12T01:23:41.763Z,1.90
2022-12-12T01:26:28.023Z,1.80
2022-12-12T01:29:14.685Z,1.60
2022-12-12T01:32:00.526Z,1.60
2022-12-12T01:34:46.920Z,1.60
2022-12-12T01:37:33.161Z,1.70
2022-12-12T01:40:23.430Z,1.70
2022-12-12T01:43:17.643Z,1.70
2022-12-12T01:46:03.898Z,1.70
2022-12-12T01:48:54.790Z,1.80
2022-12-12T01:51:43.217Z,2.10
2022-12-12T01:54:34.074Z,2.10
2022-12-12T01:57:27.596Z,1.70
2022-12-12T02:00:15.405Z,1.60
2022-12-12T02:03:03.890Z,1.60
2022-12-12T02:05:55.006Z,1.70
2022-12-12T02:08:42.000Z,1.70
2022-12-12T02:11:30.896Z,2.00
2022-12-12T02:14:25.999Z,1.60
2022-12-12T02:17:43.235Z,1.60
2022-12-12T02:20:40.798Z,1.70
2022-12-12T02:23:46.403Z,1.60
2022-12-12T02:27:03.944Z,1.60
2022-12-12T02:30:10.983Z,1.60
2022-12-12T02:33:03.000Z,1.60
2022-12-12T02:36:07.528Z,1.60
2022-12-12T02:39:02.050Z,1.60
2022-12-12T02:41:59.505Z,2.00
2022-12-12T02:44:59.626Z,1.60
2022-12-12T02:47:55.341Z,1.60
2022-12-12T02:50:43.874Z,1.70
2022-12-12T02:53:29.682Z,1.70
2022-12-12T02:56:48.735Z,1.90
2022-12-12T02:59:41.980Z,1.70
2022-12-12T03:03:24.254Z,2.00
2022-12-12T03:06:41.311Z,1.70
2022-12-12T03:09:51.361Z,1.70
2022-12-12T03:13:01.302Z,1.70
2022-12-12T03:15:57.624Z,1.80
2022-12-12T03:19:00.794Z,2.20
2022-12-12T03:21:57.867Z,1.80
2022-12-12T03:24:54.718Z,2.10
2022-12-12T03:28:25.785Z,1.70
2022-12-12T03:31:14.651Z,1.70
2022-12-12T03:34:05.830Z,2.10
2022-12-12T03:37:03.018Z,1.90
2022-12-12T03:40:03.488Z,1.70
2022-12-12T03:42:56.257Z,1.80
2022-12-12T03:45:53.601Z,1.80
2022-12-12T03:49:07.111Z,1.80
2022-12-12T03:51:59.249Z,1.80
2022-12-12T03:55:03.493Z,2.20
2022-12-12T03:57:57.063Z,1.80
2022-12-12T04:00:45.486Z,2.10
2022-12-12T04:03:51.421Z,1.80
2022-12-12T04:06:52.987Z,1.80
2022-12-12T04:09:57.666Z,2.00
2022-12-12T04:13:09.754Z,2.10
2022-12-12T04:16:10.052Z,1.70
2022-12-12T04:19:09.155Z,1.70
2022-12-12T04:22:19.679Z,2.00
2022-12-12T04:25:14.796Z,1.80
2022-12-12T04:28:05.561Z,2.00
2022-12-12T04:30:52.004Z,1.70
2022-12-12T04:33:48.633Z,1.80
2022-12-12T04:36:36.184Z,1.70
2022-12-12T04:39:24.447Z,1.80
2022-12-12T04:42:15.046Z,1.80
2022-12-12T04:45:08.792Z,1.80
2022-12-12T04:47:57.980Z,1.80
2022-12-12T04:50:48.911Z,1.80
2022-12-12T04:53:40.840Z,1.80
2022-12-12T04:56:31.464Z,1.80
2022-12-12T04:59:17.871Z,1.80
2022-12-12T05:02:27.856Z,1.80
2022-12-12T05:05:44.340Z,1.80
2022-12-12T05:08:53.392Z,1.80
2022-12-12T05:12:24.753Z,1.80
2022-12-12T05:15:11.520Z,1.80
2022-12-12T05:18:08.834Z,1.80
2022-12-12T05:20:55.297Z,1.80
2022-12-12T05:23:41.682Z,1.80
2022-12-12T05:26:33.166Z,1.80
2022-12-12T05:29:19.224Z,1.80
2022-12-12T05:32:05.199Z,1.80
2022-12-12T05:34:51.070Z,1.80
2022-12-12T05:37:40.591Z,1.90
2022-12-12T05:40:26.431Z,1.90
2022-12-12T05:43:14.397Z,1.90
2022-12-12T05:46:01.116Z,1.90
2022-12-12T05:48:50.758Z,1.90
2022-12-12T05:51:37.152Z,1.90
2022-12-12T05:54:23.474Z,1.90
2022-12-12T05:57:09.545Z,1.90
2022-12-12T05:59:55.985Z,1.90
2022-12-12T06:02:45.294Z,1.90
2022-12-12T06:05:31.658Z,1.90
2022-12-12T06:08:24.779Z,1.90
2022-12-12T06:11:14.584Z,1.90
2022-12-12T06:14:01.293Z,1.90
2022-12-12T06:16:50.189Z,1.90
2022-12-12T06:19:37.138Z,1.90
2022-12-12T06:22:26.659Z,1.90
2022-12-12T06:25:17.067Z,1.90
2022-12-12T06:28:09.746Z,1.90
2022-12-12T06:30:55.827Z,1.90
2022-12-12T06:33:43.406Z,1.90
2022-12-12T06:36:29.725Z,1.90
2022-12-12T06:39:16.725Z,1.90
2022-12-12T06:42:02.928Z,1.90
2022-12-12T06:44:49.721Z,1.90
2022-12-12T06:47:35.697Z,1.90
2022-12-12T06:50:23.823Z,1.90
2022-12-12T06:53:10.850Z,1.90
2022-12-12T06:55:59.105Z,1.90
2022-12-12T06:58:46.165Z,1.90
2022-12-12T07:01:33.480Z,1.90
2022-12-12T07:04:20.205Z,1.90
2022-12-12T07:07:06.392Z,1.80
2022-12-12T07:09:52.811Z,1.80
2022-12-12T07:12:38.942Z,1.80
2022-12-12T07:15:24.982Z,1.80
2022-12-12T07:18:11.555Z,1.90
2022-12-12T07:20:57.772Z,1.80
2022-12-12T07:23:43.953Z,1.80
2022-12-12T07:26:30.127Z,1.80
2022-12-12T07:29:15.945Z,1.90
2022-12-12T07:32:02.099Z,1.80
2022-12-12T07:34:48.441Z,1.80
2022-12-12T07:37:35.046Z,1.80
2022-12-12T07:40:21.733Z,1.80
2022-12-12T07:43:08.282Z,1.80
2022-12-12T07:45:54.615Z,1.80
2022-12-12T07:48:41.007Z,1.80
2022-12-12T07:51:26.869Z,1.80
2022-12-12T07:54:12.792Z,1.80
2022-12-12T07:57:01.847Z,1.80
2022-12-12T07:59:47.979Z,1.80
2022-12-12T08:02:33.939Z,1.80
2022-12-12T08:05:20.314Z,1.80
2022-12-12T08:08:06.822Z,1.80
2022-12-12T08:10:53.140Z,1.80
2022-12-12T08:13:40.382Z,1.80
2022-12-12T08:16:28.693Z,1.80
2022-12-12T08:19:14.880Z,1.80
2022-12-12T08:22:01.027Z,2.00
2022-12-12T08:24:49.279Z,2.20
2022-12-12T08:27:45.732Z,2.20
2022-12-12T08:31:20.127Z,1.80
2022-12-12T08:34:06.348Z,1.80
2022-12-12T08:38:25.062Z,2.10
2022-12-12T08:41:19.927Z,1.80
2022-12-12T08:44:09.824Z,1.80
2022-12-12T08:47:47.994Z,1.80
2022-12-12T08:50:35.027Z,1.80
2022-12-12T08:53:50.922Z,1.90
2022-12-12T08:57:02.794Z,1.90
2022-12-12T08:59:52.778Z,1.90
2022-12-12T09:04:33.907Z,1.90
2022-12-12T09:06:43.580Z,1.90
2022-12-12T09:11:54.993Z,1.90
2022-12-12T09:14:41.205Z,1.90
2022-12-12T09:17:27.300Z,2.20
2022-12-12T09:20:14.089Z,2.00
2022-12-12T09:23:00.646Z,2.00
2022-12-12T09:25:54.006Z,2.00
2022-12-12T09:28:41.162Z,2.10
2022-12-12T09:31:27.246Z,2.10
2022-12-12T09:39:17.641Z,2.10
2022-12-12T09:42:22.517Z,2.20
2022-12-12T09:54:44.397Z,2.20
2022-12-12T09:57:47.118Z,2.30
2022-12-12T10:00:38.508Z,2.20
2022-12-12T10:03:50.761Z,2.30
2022-12-12T10:06:59.214Z,2.30
2022-12-12T10:10:09.694Z,2.40
2022-12-12T10:12:59.900Z,2.40
2022-12-12T10:15:56.438Z,2.50
2022-12-12T10:18:52.046Z,2.40
2022-12-12T10:21:40.966Z,2.40
2022-12-12T10:24:42.747Z,2.50
2022-12-12T10:27:30.075Z,2.40
2022-12-12T10:30:18.753Z,2.40
2022-12-12T10:33:43.762Z,2.40
2022-12-12T10:36:57.983Z,2.50
2022-12-12T10:40:14.950Z,2.50
2022-12-12T10:43:29.403Z,2.50
2022-12-12T10:46:40.033Z,2.60
2022-12-12T10:49:26.883Z,2.60
2022-12-12T10:52:22.050Z,2.60
2022-12-12T10:55:25.283Z,2.60
2022-12-12T10:58:11.810Z,2.50
2022-12-12T11:01:02.837Z,2.60
2022-12-12T11:03:51.007Z,2.50
2022-12-12T11:06:53.041Z,2.60
2022-12-12T11:09:46.130Z,2.60
2022-12-12T11:12:34.926Z,2.60
2022-12-12T11:15:25.810Z,2.70
2022-12-12T11:18:20.799Z,2.70
2022-12-12T11:21:12.675Z,2.90
2022-12-12T11:24:00.275Z,2.80
2022-12-12T11:27:05.220Z,2.80
2022-12-12T11:29:59.046Z,2.80
2022-12-12T11:32:47.996Z,2.90
2022-12-12T11:35:45.585Z,2.90
2022-12-12T11:38:45.297Z,3.00
2022-12-12T11:42:05.138Z,3.00
2022-12-12T11:45:09.325Z,3.00
2022-12-12T11:47:55.528Z,3.00
2022-12-12T11:50:46.416Z,2.90
2022-12-12T11:53:43.183Z,2.90
2022-12-12T11:56:55.691Z,2.90
2022-12-12T12:00:11.493Z,2.90
2022-12-12T12:03:29.234Z,2.90
2022-12-12T12:06:58.069Z,2.90
2022-12-12T12:10:02.980Z,2.90
2022-12-12T12:13:17.452Z,2.90
2022-12-12T12:16:16.150Z,2.90
2022-12-12T12:19:11.733Z,2.90
2022-12-12T12:22:43.382Z,3.00
2022-12-12T12:25:44.397Z,2.90
2022-12-12T12:28:55.603Z,3.00
2022-12-12T12:32:02.786Z,3.00
2022-12-12T12:35:15.331Z,2.90
2022-12-12T12:38:07.492Z,2.90
2022-12-12T12:41:17.934Z,2.80
2022-12-12T12:44:29.084Z,2.80
2022-12-12T12:47:39.042Z,2.90
2022-12-12T12:50:32.963Z,2.90
2022-12-12T12:53:33.720Z,2.90
2022-12-12T12:56:33.013Z,2.90
2022-12-12T12:59:24.477Z,2.90
2022-12-12T13:02:30.357Z,2.90
2022-12-12T13:05:35.442Z,2.90
2022-12-12T13:08:36.491Z,3.00
2022-12-12T13:11:34.272Z,3.00
2022-12-12T13:14:48.055Z,3.00
2022-12-12T13:17:52.048Z,2.90
2022-12-12T13:20:44.549Z,2.90
2022-12-12T13:23:56.391Z,2.80
2022-12-12T13:26:42.562Z,2.80
2022-12-12T13:29:28.505Z,2.80
2022-12-12T13:32:36.381Z,2.80
2022-12-12T13:35:31.815Z,2.70
2022-12-12T13:38:28.373Z,2.70
2022-12-12T13:41:15.321Z,3.10
2022-12-12T13:44:01.159Z,2.70
2022-12-12T13:46:47.107Z,2.70
2022-12-12T13:49:49.785Z,2.90
2022-12-12T13:52:42.216Z,2.70
2022-12-12T13:55:31.335Z,2.70
2022-12-12T13:58:20.568Z,2.70
2022-12-12T14:01:45.918Z,2.70
2022-12-12T14:04:39.732Z,2.70
2022-12-12T14:07:25.852Z,2.70
2022-12-12T14:10:40.969Z,2.60
2022-12-12T14:13:33.193Z,2.60
2022-12-12T14:16:20.819Z,2.60
2022-12-12T14:19:23.710Z,2.60
2022-12-12T14:22:49.677Z,2.60
2022-12-12T14:25:39.515Z,2.60
2022-12-12T14:28:29.832Z,2.50
2022-12-12T14:31:17.533Z,2.50
2022-12-12T14:34:18.676Z,2.50
2022-12-12T14:37:38.474Z,2.50
2022-12-12T14:40:32.580Z,2.50
2022-12-12T14:43:32.380Z,2.50
2022-12-12T14:46:23.550Z,2.50
2022-12-12T14:49:16.210Z,2.50
2022-12-12T14:52:02.916Z,2.50
2022-12-12T14:54:50.807Z,2.60
2022-12-12T14:57:36.809Z,2.60
2022-12-12T15:00:22.938Z,2.60
2022-12-12T15:03:09.532Z,2.60
2022-12-12T15:06:28.559Z,2.60
2022-12-12T15:09:32.092Z,2.60
2022-12-12T15:12:43.944Z,2.60
2022-12-12T15:15:33.796Z,2.60
2022-12-12T15:18:21.066Z,2.40
2022-12-12T15:24:13.780Z,2.60
2022-12-12T15:26:59.978Z,2.60
2022-12-12T15:29:47.013Z,2.60
2022-12-12T15:32:33.268Z,2.50
2022-12-12T15:35:21.946Z,2.80
2022-12-12T15:38:13.105Z,2.60
2022-12-12T15:41:01.462Z,2.60
2022-12-12T15:43:47.396Z,2.50
2022-12-12T15:46:33.956Z,2.50
2022-12-12T15:49:44.495Z,2.80
2022-12-12T15:52:31.688Z,2.30
2022-12-12T15:55:22.228Z,2.30
2022-12-12T15:58:29.250Z,2.20
2022-12-12T16:01:22.118Z,2.10
2022-12-12T16:04:14.018Z,2.00
2022-12-12T16:07:20.696Z,2.00
2022-12-12T16:10:15.475Z,1.90
2022-12-12T16:13:22.004Z,1.90
2022-12-12T16:16:38.793Z,1.80
2022-12-12T16:19:25.422Z,1.80
2022-12-12T16:22:30.227Z,1.70
2022-12-12T16:25:21.603Z,1.70
2022-12-12T16:28:08.253Z,1.60
2022-12-12T16:30:59.994Z,1.70
2022-12-12T16:33:49.598Z,1.60
2022-12-12T16:36:41.847Z,1.50
2022-12-12T16:39:31.473Z,1.50
2022-12-12T16:42:20.056Z,1.50
2022-12-12T16:45:06.766Z,1.50
2022-12-12T16:47:53.167Z,1.40
2022-12-12T16:50:39.255Z,1.40
2022-12-12T16:53:25.116Z,1.40
2022-12-12T16:56:12.387Z,1.60
2022-12-12T16:58:58.286Z,1.30
2022-12-12T17:01:44.686Z,1.30
2022-12-12T17:04:31.126Z,1.40
2022-12-12T17:07:17.425Z,1.30
2022-12-12T17:10:04.753Z,1.20
2022-12-12T17:12:52.971Z,1.20
2022-12-12T17:15:38.802Z,1.10
2022-12-12T17:18:24.854Z,1.10
2022-12-12T17:21:13.173Z,1.10
2022-12-12T17:23:59.613Z,1.10
2022-12-12T17:26:45.589Z,1.10
2022-12-12T17:29:31.548Z,1.40
2022-12-12T17:32:22.819Z,1.20
2022-12-12T17:35:11.071Z,1.10
2022-12-12T17:37:59.215Z,1.10
2022-12-12T17:40:45.515Z,1.20
2022-12-12T17:43:31.858Z,1.10
2022-12-12T17:46:18.280Z,1.10
2022-12-12T17:49:04.365Z,1.40
2022-12-12T17:51:50.310Z,1.00
2022-12-12T17:54:36.298Z,1.00
2022-12-12T17:57:25.369Z,1.10
2022-12-12T18:00:12.225Z,1.00
2022-12-12T18:03:00.542Z,1.00
2022-12-12T18:05:47.916Z,1.00
2022-12-12T18:08:34.179Z,0.90
2022-12-12T18:11:24.858Z,1.30
2022-12-12T18:14:15.992Z,0.90
2022-12-12T18:17:02.347Z,1.00
2022-12-12T18:19:48.590Z,1.00
2022-12-12T18:22:34.581Z,1.10
2022-12-12T18:25:22.900Z,1.30
2022-12-12T18:28:12.276Z,1.40
2022-12-12T18:30:58.447Z,1.50
2022-12-12T18:33:44.810Z,1.60
2022-12-12T18:36:32.542Z,2.00
2022-12-12T18:39:18.611Z,1.90
2022-12-12T18:42:06.250Z,1.80
2022-12-12T18:44:52.908Z,2.30
2022-12-12T18:47:39.017Z,2.00
2022-12-12T18:50:25.010Z,2.00
2022-12-12T18:53:11.796Z,2.20
2022-12-12T18:55:58.210Z,2.20
2022-12-12T18:58:44.216Z,2.20
2022-12-12T19:01:34.314Z,2.10
2022-12-12T19:04:23.508Z,2.20
2022-12-12T19:07:11.396Z,2.20
2022-12-12T19:10:00.074Z,2.20
2022-12-12T19:12:47.091Z,2.30
2022-12-12T19:15:34.497Z,2.30
2022-12-12T19:18:20.817Z,2.30
2022-12-12T19:21:10.343Z,2.30
2022-12-12T19:23:58.943Z,2.30
2022-12-12T19:26:45.433Z,2.30
2022-12-12T19:29:33.306Z,2.40
2022-12-12T19:32:23.142Z,2.40
2022-12-12T19:35:10.242Z,2.40
2022-12-12T19:37:58.893Z,2.30
2022-12-12T19:40:45.015Z,2.40
2022-12-12T19:43:31.682Z,2.40
2022-12-12T19:46:22.819Z,2.80
2022-12-12T19:49:11.192Z,2.40
2022-12-12T19:51:57.389Z,2.40
2022-12-12T19:54:43.511Z,2.40
2022-12-12T19:57:30.450Z,2.40
2022-12-12T20:00:19.859Z,2.50
2022-12-12T20:03:06.282Z,2.40
2022-12-12T20:06:01.608Z,2.40
2022-12-12T20:08:48.150Z,2.80
2022-12-12T20:11:34.798Z,2.40
2022-12-12T20:14:27.164Z,2.40
2022-12-12T20:17:13.381Z,2.70
2022-12-12T20:20:00.150Z,2.40
2022-12-12T20:22:46.343Z,2.30
2022-12-12T20:25:32.263Z,2.30
2022-12-12T20:28:18.419Z,2.20
2022-12-12T20:31:16.789Z,2.30
2022-12-12T20:34:03.128Z,2.30
2022-12-12T20:36:50.429Z,2.30
2022-12-12T20:39:37.503Z,2.30
2022-12-12T20:42:25.937Z,2.30
2022-12-12T20:45:12.606Z,2.40
2022-12-12T20:48:02.876Z,2.30
2022-12-12T20:50:52.028Z,2.50
2022-12-12T20:53:41.814Z,2.30
2022-12-12T20:56:28.956Z,2.60
2022-12-12T20:59:15.207Z,2.20
2022-12-12T21:02:02.473Z,2.20
2022-12-12T21:04:49.850Z,2.10
2022-12-12T21:07:36.095Z,2.00
2022-12-12T21:10:23.066Z,1.90
2022-12-12T21:13:09.531Z,2.30
2022-12-12T21:15:57.497Z,1.90
2022-12-12T21:18:43.910Z,2.20
2022-12-12T21:21:32.771Z,1.80
2022-12-12T21:24:19.895Z,1.70
2022-12-12T21:27:06.445Z,1.80
2022-12-12T21:29:52.839Z,1.70
2022-12-12T21:32:39.261Z,1.70
2022-12-12T21:35:25.131Z,1.70
2022-12-12T21:38:11.570Z,1.70
2022-12-12T21:40:57.555Z,1.70
2022-12-12T21:43:43.778Z,1.60
2022-12-12T21:46:30.568Z,1.60
2022-12-12T21:49:20.140Z,1.40
2022-12-12T21:52:11.952Z,1.40
2022-12-12T21:54:57.816Z,1.30
2022-12-12T21:57:45.512Z,1.20
2022-12-12T22:00:31.592Z,1.20
2022-12-12T22:03:17.655Z,1.10
2022-12-12T22:06:23.741Z,1.10
2022-12-12T22:09:11.678Z,1.00
2022-12-12T22:12:03.401Z,1.00
2022-12-12T22:14:50.046Z,0.90
2022-12-12T22:17:36.179Z,0.90
2022-12-12T22:20:22.389Z,0.90
2022-12-12T22:23:08.995Z,0.80
2022-12-12T22:25:55.672Z,0.80
2022-12-12T22:28:42.521Z,1.30
2022-12-12T22:31:35.422Z,1.20
2022-12-12T22:34:24.427Z,0.80
2022-12-12T22:37:10.345Z,0.70
2022-12-12T22:39:56.650Z,0.70
2022-12-12T22:42:42.746Z,0.60
2022-12-12T22:45:28.790Z,0.40
2022-12-12T22:48:16.690Z,0.40
2022-12-12T22:51:18.838Z,0.30
2022-12-12T22:54:05.886Z,0.20
2022-12-12T22:56:52.009Z,0.20
2022-12-12T22:59:38.322Z,0.10
2022-12-12T23:02:27.388Z,0.10
2022-12-12T23:05:14.374Z,0.00
2022-12-12T23:08:01.193Z,-0.10
2022-12-12T23:10:47.635Z,-0.10
2022-12-12T23:13:34.566Z,0.40
2022-12-12T23:16:24.755Z,-0.20
2022-12-12T23:19:14.717Z,-0.20
2022-12-12T23:25:01.294Z,-0.30
2022-12-12T23:27:49.014Z,-0.40
2022-12-12T23:30:38.484Z,-0.40
2022-12-12T23:33:24.686Z,-0.40
2022-12-12T23:36:12.598Z,-0.50
2022-12-12T23:39:02.464Z,-0.50
2022-12-12T23:41:49.058Z,-0.50
2022-12-12T23:44:35.340Z,-0.50
2022-12-12T23:47:22.235Z,-0.50
2022-12-12T23:50:08.889Z,-0.60
2022-12-12T23:52:55.013Z,-0.60
2022-12-12T23:55:41.239Z,-0.60
2022-12-12T23:58:27.814Z,-0.60
